sensor_id;sensor_type;location;lat;lon;timestamp;pressure;altitude;pressure_sealevel;temperature;humidity
37078;BME280;22989;55.998;37.212;2023-09-30T00:00:46;40390.22;;;-145.39;53.20
37078;BME280;22989;55.998;37.212;2023-09-30T00:03:12;40401.91;;;-145.39;53.27
37078;BME280;22989;55.998;37.212;2023-09-30T00:05:38;40425.34;;;-145.39;53.29
37078;BME280;22989;55.998;37.212;2023-09-30T00:08:04;40413.63;;;-145.39;53.47
37078;BME280;22989;55.998;37.212;2023-09-30T00:10:30;40417.53;;;-145.39;53.39
37078;BME280;22989;55.998;37.212;2023-09-30T00:12:56;40407.78;;;-145.39;53.40
37078;BME280;22989;55.998;37.212;2023-09-30T00:15:22;40462.41;;;-145.39;53.51
37078;BME280;22989;55.998;37.212;2023-09-30T00:17:49;40476.06;;;-145.39;53.48
37078;BME280;22989;55.998;37.212;2023-09-30T00:20:14;40366.78;;;-145.39;53.42
37078;BME280;22989;55.998;37.212;2023-09-30T00:22:41;40464.38;;;-145.39;53.48
37078;BME280;22989;55.998;37.212;2023-09-30T00:25:07;40497.53;;;-145.39;53.56
37078;BME280;22989;55.998;37.212;2023-09-30T00:27:33;40487.78;;;-145.39;53.63
37078;BME280;22989;55.998;37.212;2023-09-30T00:29:59;40519.00;;;-145.39;53.65
37078;BME280;22989;55.998;37.212;2023-09-30T00:32:24;40479.97;;;-145.39;53.52
37078;BME280;22989;55.998;37.212;2023-09-30T00:34:50;40517.06;;;-145.39;53.73
37078;BME280;22989;55.998;37.212;2023-09-30T00:37:17;40519.00;;;-145.39;53.80
37078;BME280;22989;55.998;37.212;2023-09-30T00:39:43;40536.56;;;-145.39;53.89
37078;BME280;22989;55.998;37.212;2023-09-30T00:42:10;40530.72;;;-145.39;53.95
37078;BME280;22989;55.998;37.212;2023-09-30T00:44:36;40546.34;;;-145.39;54.18
37078;BME280;22989;55.998;37.212;2023-09-30T00:47:02;40534.63;;;-145.39;54.02
37078;BME280;22989;55.998;37.212;2023-09-30T00:49:29;40524.88;;;-145.39;54.31
37078;BME280;22989;55.998;37.212;2023-09-30T00:51:55;40565.84;;;-145.39;54.20
37078;BME280;22989;55.998;37.212;2023-09-30T00:54:22;40573.66;;;-145.39;54.17
37078;BME280;22989;55.998;37.212;2023-09-30T00:56:49;40585.38;;;-145.39;54.30
37078;BME280;22989;55.998;37.212;2023-09-30T00:59:17;40585.38;;;-145.39;54.31
37078;BME280;22989;55.998;37.212;2023-09-30T01:01:45;40575.59;;;-145.39;54.27
37078;BME280;22989;55.998;37.212;2023-09-30T01:04:11;40589.28;;;-145.39;54.50
37078;BME280;22989;55.998;37.212;2023-09-30T01:06:37;40577.56;;;-145.39;54.45
37078;BME280;22989;55.998;37.212;2023-09-30T01:09:03;40569.75;;;-145.39;54.53
37078;BME280;22989;55.998;37.212;2023-09-30T01:11:29;40641.97;;;-145.39;54.61
37078;BME280;22989;55.998;37.212;2023-09-30T01:13:55;40548.28;;;-145.39;54.64
37078;BME280;22989;55.998;37.212;2023-09-30T01:16:21;40542.44;;;-145.39;54.73
37078;BME280;22989;55.998;37.212;2023-09-30T01:18:46;40577.56;;;-145.39;54.68
37078;BME280;22989;55.998;37.212;2023-09-30T01:21:12;40599.03;;;-145.39;54.78
37078;BME280;22989;55.998;37.212;2023-09-30T01:23:40;40634.16;;;-145.39;54.95
37078;BME280;22989;55.998;37.212;2023-09-30T01:26:08;40630.25;;;-145.39;54.98
37078;BME280;22989;55.998;37.212;2023-09-30T01:28:34;40616.59;;;-145.39;54.93
37078;BME280;22989;55.998;37.212;2023-09-30T01:31:00;40638.06;;;-145.39;55.05
37078;BME280;22989;55.998;37.212;2023-09-30T01:33:27;40640.00;;;-145.39;55.26
37078;BME280;22989;55.998;37.212;2023-09-30T01:35:54;40649.78;;;-145.39;55.22
37078;BME280;22989;55.998;37.212;2023-09-30T01:38:20;40643.91;;;-145.39;55.32
37078;BME280;22989;55.998;37.212;2023-09-30T01:40:46;40622.44;;;-145.39;55.25
37078;BME280;22989;55.998;37.212;2023-09-30T01:43:13;40643.91;;;-145.39;55.42
37078;BME280;22989;55.998;37.212;2023-09-30T01:45:42;40655.63;;;-145.39;55.39
37078;BME280;22989;55.998;37.212;2023-09-30T01:48:08;40667.34;;;-145.39;55.56
37078;BME280;22989;55.998;37.212;2023-09-30T01:50:40;40684.91;;;-145.39;55.49
37078;BME280;22989;55.998;37.212;2023-09-30T01:53:06;40706.38;;;-145.39;55.48
37078;BME280;22989;55.998;37.212;2023-09-30T01:55:36;40706.38;;;-145.39;55.44
37078;BME280;22989;55.998;37.212;2023-09-30T01:58:03;40675.16;;;-145.39;55.54
37078;BME280;22989;55.998;37.212;2023-09-30T02:00:28;40710.28;;;-145.39;55.69
37078;BME280;22989;55.998;37.212;2023-09-30T02:02:55;40749.31;;;-145.39;55.68
37078;BME280;22989;55.998;37.212;2023-09-30T02:05:21;40731.75;;;-145.39;55.75
37078;BME280;22989;55.998;37.212;2023-09-30T02:07:49;40716.13;;;-145.39;55.82
37078;BME280;22989;55.998;37.212;2023-09-30T02:10:16;40731.75;;;-145.39;55.97
37078;BME280;22989;55.998;37.212;2023-09-30T02:12:45;40755.16;;;-145.39;56.11
37078;BME280;22989;55.998;37.212;2023-09-30T02:15:12;40762.97;;;-145.39;56.03
37078;BME280;22989;55.998;37.212;2023-09-30T02:17:38;40759.06;;;-145.39;56.17
37078;BME280;22989;55.998;37.212;2023-09-30T02:20:04;40761.03;;;-145.39;56.27
37078;BME280;22989;55.998;37.212;2023-09-30T02:22:32;40727.84;;;-145.39;56.24
37078;BME280;22989;55.998;37.212;2023-09-30T02:24:58;40764.91;;;-145.39;56.25
37078;BME280;22989;55.998;37.212;2023-09-30T02:27:24;40774.69;;;-145.39;56.32
37078;BME280;22989;55.998;37.212;2023-09-30T02:29:49;40762.97;;;-145.39;56.37
37078;BME280;22989;55.998;37.212;2023-09-30T02:32:16;40774.69;;;-145.39;56.34
37078;BME280;22989;55.998;37.212;2023-09-30T02:34:42;40745.41;;;-145.39;56.42
37078;BME280;22989;55.998;37.212;2023-09-30T02:37:09;40811.75;;;-145.39;56.54
37078;BME280;22989;55.998;37.212;2023-09-30T02:39:36;40759.06;;;-145.39;56.67
37078;BME280;22989;55.998;37.212;2023-09-30T02:42:03;40809.81;;;-145.39;56.68
37078;BME280;22989;55.998;37.212;2023-09-30T02:44:28;40792.25;;;-145.39;56.71
37078;BME280;22989;55.998;37.212;2023-09-30T02:46:54;40792.25;;;-145.39;56.82
37078;BME280;22989;55.998;37.212;2023-09-30T02:49:20;40811.75;;;-145.39;56.84
37078;BME280;22989;55.998;37.212;2023-09-30T02:51:46;40825.44;;;-145.39;56.86
37078;BME280;22989;55.998;37.212;2023-09-30T02:54:12;40788.34;;;-145.39;56.93
37078;BME280;22989;55.998;37.212;2023-09-30T02:56:41;40784.44;;;-145.39;56.90
37078;BME280;22989;55.998;37.212;2023-09-30T02:59:07;40786.38;;;-145.39;57.08
37078;BME280;22989;55.998;37.212;2023-09-30T03:01:33;40831.28;;;-145.39;57.27
37078;BME280;22989;55.998;37.212;2023-09-30T03:03:59;40827.38;;;-145.39;57.09
37078;BME280;22989;55.998;37.212;2023-09-30T03:06:24;40854.69;;;-145.39;57.21
37078;BME280;22989;55.998;37.212;2023-09-30T03:08:50;40897.66;;;-145.39;57.12
37078;BME280;22989;55.998;37.212;2023-09-30T03:11:17;40924.97;;;-145.39;57.09
37078;BME280;22989;55.998;37.212;2023-09-30T03:13:45;41034.28;;;-145.39;57.21
37078;BME280;22989;55.998;37.212;2023-09-30T03:16:11;41149.44;;;-145.39;57.23
37078;BME280;22989;55.998;37.212;2023-09-30T03:18:37;41319.25;;;-145.39;57.36
37078;BME280;22989;55.998;37.212;2023-09-30T03:21:13;41475.41;;;-145.39;57.48
37078;BME280;22989;55.998;37.212;2023-09-30T03:23:39;41666.72;;;-145.39;57.40
37078;BME280;22989;55.998;37.212;2023-09-30T03:26:05;41865.84;;;-145.39;57.40
37078;BME280;22989;55.998;37.212;2023-09-30T03:28:38;41990.78;;;-145.39;57.55
37078;BME280;22989;55.998;37.212;2023-09-30T03:31:05;42092.31;;;-145.39;57.61
37078;BME280;22989;55.998;37.212;2023-09-30T03:33:34;42154.78;;;-145.39;57.59
37078;BME280;22989;55.998;37.212;2023-09-30T03:36:00;42240.69;;;-145.39;57.61
37078;BME280;22989;55.998;37.212;2023-09-30T03:38:26;42340.28;;;-145.39;57.63
37078;BME280;22989;55.998;37.212;2023-09-30T03:40:52;42373.47;;;-145.39;57.70
37078;BME280;22989;55.998;37.212;2023-09-30T03:43:20;42418.38;;;-145.39;57.69
37078;BME280;22989;55.998;37.212;2023-09-30T03:45:46;42428.13;;;-145.39;57.73
37078;BME280;22989;55.998;37.212;2023-09-30T03:48:12;42523.81;;;-145.39;57.78
37078;BME280;22989;55.998;37.212;2023-09-30T03:50:38;42562.88;;;-145.39;57.91
37078;BME280;22989;55.998;37.212;2023-09-30T03:53:05;42574.59;;;-145.39;57.85
37078;BME280;22989;55.998;37.212;2023-09-30T03:55:32;42592.16;;;-145.39;57.90
37078;BME280;22989;55.998;37.212;2023-09-30T03:57:59;42629.25;;;-145.39;57.88
37078;BME280;22989;55.998;37.212;2023-09-30T04:00:24;42601.91;;;-145.39;58.07
37078;BME280;22989;55.998;37.212;2023-09-30T04:02:50;42553.09;;;-145.39;57.92
37078;BME280;22989;55.998;37.212;2023-09-30T04:05:20;42576.53;;;-145.39;57.90
37078;BME280;22989;55.998;37.212;2023-09-30T04:07:51;42594.09;;;-145.39;57.86
37078;BME280;22989;55.998;37.212;2023-09-30T04:10:17;42650.72;;;-145.39;57.85
37078;BME280;22989;55.998;37.212;2023-09-30T04:12:43;42523.81;;;-145.39;57.65
37078;BME280;22989;55.998;37.212;2023-09-30T04:15:09;42580.44;;;-145.39;57.56
37078;BME280;22989;55.998;37.212;2023-09-30T04:17:38;42619.50;;;-145.39;57.54
37078;BME280;22989;55.998;37.212;2023-09-30T04:20:06;42656.59;;;-145.39;57.54
37078;BME280;22989;55.998;37.212;2023-09-30T04:22:35;42793.28;;;-145.39;57.46
37078;BME280;22989;55.998;37.212;2023-09-30T04:25:01;42627.31;;;-145.39;57.30
37078;BME280;22989;55.998;37.212;2023-09-30T04:27:26;42570.69;;;-145.39;57.14
37078;BME280;22989;55.998;37.212;2023-09-30T04:29:52;42601.91;;;-145.39;57.09
37078;BME280;22989;55.998;37.212;2023-09-30T04:32:18;42459.38;;;-145.39;56.95
37078;BME280;22989;55.998;37.212;2023-09-30T04:34:45;42273.88;;;-145.39;56.68
37078;BME280;22989;55.998;37.212;2023-09-30T04:37:12;42150.88;;;-145.39;56.42
37078;BME280;22989;55.998;37.212;2023-09-30T04:39:39;42020.06;;;-145.39;56.14
37078;BME280;22989;55.998;37.212;2023-09-30T04:42:04;41953.69;;;-145.39;55.61
37078;BME280;22989;55.998;37.212;2023-09-30T04:44:30;41984.94;;;-145.39;55.37
37078;BME280;22989;55.998;37.212;2023-09-30T04:46:57;41766.28;;;-145.39;55.03
37078;BME280;22989;55.998;37.212;2023-09-30T04:49:24;41489.06;;;-145.39;54.90
37078;BME280;22989;55.998;37.212;2023-09-30T04:51:50;41235.31;;;-145.39;54.65
37078;BME280;22989;55.998;37.212;2023-09-30T04:54:15;40928.88;;;-145.39;54.16
37078;BME280;22989;55.998;37.212;2023-09-30T04:56:41;40694.66;;;-145.39;53.49
37078;BME280;22989;55.998;37.212;2023-09-30T04:59:06;40431.19;;;-145.39;52.28
37078;BME280;22989;55.998;37.212;2023-09-30T05:01:32;40159.94;;;-145.39;50.88
37078;BME280;22989;55.998;37.212;2023-09-30T05:03:58;39929.69;;;-145.39;49.50
37078;BME280;22989;55.998;37.212;2023-09-30T05:06:24;39769.66;;;-145.39;47.78
37078;BME280;22989;55.998;37.212;2023-09-30T05:08:50;39765.78;;;-145.39;46.22
37078;BME280;22989;55.998;37.212;2023-09-30T05:11:15;39679.91;;;-145.39;44.83
37078;BME280;22989;55.998;37.212;2023-09-30T05:13:41;39422.38;;;-145.39;43.36
37078;BME280;22989;55.998;37.212;2023-09-30T05:16:06;39287.75;;;-145.39;42.04
37078;BME280;22989;55.998;37.212;2023-09-30T05:18:33;39098.50;;;-145.39;41.09
37078;BME280;22989;55.998;37.212;2023-09-30T05:20:59;39028.28;;;-145.39;39.95
37078;BME280;22989;55.998;37.212;2023-09-30T05:23:25;38901.47;;;-145.39;39.06
37078;BME280;22989;55.998;37.212;2023-09-30T05:25:51;38831.25;;;-145.39;38.72
37078;BME280;22989;55.998;37.212;2023-09-30T05:28:17;38792.22;;;-145.39;37.82
37078;BME280;22989;55.998;37.212;2023-09-30T05:30:42;38692.75;;;-145.39;37.48
37078;BME280;22989;55.998;37.212;2023-09-30T05:33:08;38542.53;;;-145.39;37.12
37078;BME280;22989;55.998;37.212;2023-09-30T05:35:42;38575.69;;;-145.39;36.31
37078;BME280;22989;55.998;37.212;2023-09-30T05:38:08;38567.91;;;-145.39;35.79
37078;BME280;22989;55.998;37.212;2023-09-30T05:40:34;38460.63;;;-145.39;35.41
37078;BME280;22989;55.998;37.212;2023-09-30T05:42:59;38487.94;;;-145.39;35.14
37078;BME280;22989;55.998;37.212;2023-09-30T05:45:31;38622.53;;;-145.39;34.82
37078;BME280;22989;55.998;37.212;2023-09-30T05:48:01;38712.25;;;-145.39;34.90
37078;BME280;22989;55.998;37.212;2023-09-30T05:50:29;38556.19;;;-145.39;34.79
37078;BME280;22989;55.998;37.212;2023-09-30T05:52:55;38374.78;;;-145.39;34.86
37078;BME280;22989;55.998;37.212;2023-09-30T05:55:21;38064.66;;;-145.39;34.57
37078;BME280;22989;55.998;37.212;2023-09-30T05:57:51;37836.47;;;-145.39;34.12
37078;BME280;22989;55.998;37.212;2023-09-30T06:00:18;37545.91;;;-145.39;33.69
37078;BME280;22989;55.998;37.212;2023-09-30T06:02:48;37364.53;;;-145.39;33.32
37078;BME280;22989;55.998;37.212;2023-09-30T06:05:15;37194.91;;;-145.39;32.71
37078;BME280;22989;55.998;37.212;2023-09-30T06:07:51;37064.25;;;-145.39;32.19
37078;BME280;22989;55.998;37.212;2023-09-30T06:10:17;37060.34;;;-145.39;31.75
37078;BME280;22989;55.998;37.212;2023-09-30T06:12:50;37122.75;;;-145.39;31.66
37078;BME280;22989;55.998;37.212;2023-09-30T06:15:20;37075.94;;;-145.39;31.43
37078;BME280;22989;55.998;37.212;2023-09-30T06:17:48;37035.00;;;-145.39;31.63
37078;BME280;22989;55.998;37.212;2023-09-30T06:20:14;37038.91;;;-145.39;31.42
37078;BME280;22989;55.998;37.212;2023-09-30T06:22:43;36966.75;;;-145.39;31.46
37078;BME280;22989;55.998;37.212;2023-09-30T06:25:17;36793.22;;;-145.39;31.51
37078;BME280;22989;55.998;37.212;2023-09-30T06:27:46;36648.94;;;-145.39;31.13
37078;BME280;22989;55.998;37.212;2023-09-30T06:30:13;36682.09;;;-145.39;30.75
37078;BME280;22989;55.998;37.212;2023-09-30T06:32:41;36639.19;;;-145.39;30.83
37078;BME280;22989;55.998;37.212;2023-09-30T06:35:08;36549.50;;;-145.39;30.63
37078;BME280;22989;55.998;37.212;2023-09-30T06:37:36;36362.34;;;-145.39;30.63
37078;BME280;22989;55.998;37.212;2023-09-30T06:40:07;36177.16;;;-145.39;30.73
37078;BME280;22989;55.998;37.212;2023-09-30T06:42:34;36042.66;;;-145.39;30.18
37078;BME280;22989;55.998;37.212;2023-09-30T06:45:01;35898.41;;;-145.39;29.78
37078;BME280;22989;55.998;37.212;2023-09-30T06:47:35;35683.97;;;-145.39;29.92
37078;BME280;22989;55.998;37.212;2023-09-30T06:50:08;35502.72;;;-145.39;29.68
37078;BME280;22989;55.998;37.212;2023-09-30T06:52:38;35457.88;;;-145.39;29.53
37078;BME280;22989;55.998;37.212;2023-09-30T06:55:05;35590.41;;;-145.39;29.18
37078;BME280;22989;55.998;37.212;2023-09-30T06:57:35;35894.50;;;-145.39;29.14
37078;BME280;22989;55.998;37.212;2023-09-30T07:00:04;36220.03;;;-145.39;29.58
37078;BME280;22989;55.998;37.212;2023-09-30T07:02:34;36849.78;;;-145.39;29.95
37078;BME280;22989;55.998;37.212;2023-09-30T07:04:59;37070.09;;;-145.39;30.35
37078;BME280;22989;55.998;37.212;2023-09-30T07:07:25;36988.22;;;-145.39;30.56
37078;BME280;22989;55.998;37.212;2023-09-30T07:09:50;36964.81;;;-145.39;30.78
37078;BME280;22989;55.998;37.212;2023-09-30T07:12:16;37040.84;;;-145.39;30.62
37078;BME280;22989;55.998;37.212;2023-09-30T07:14:42;37194.91;;;-145.39;30.41
37078;BME280;22989;55.998;37.212;2023-09-30T07:17:08;37446.44;;;-145.39;30.78
37078;BME280;22989;55.998;37.212;2023-09-30T07:19:33;37707.75;;;-145.39;31.13
37078;BME280;22989;55.998;37.212;2023-09-30T07:21:59;38010.06;;;-145.39;31.33
37078;BME280;22989;55.998;37.212;2023-09-30T07:24:24;38279.22;;;-145.39;31.95
37078;BME280;22989;55.998;37.212;2023-09-30T07:26:50;38407.94;;;-145.39;32.06
37078;BME280;22989;55.998;37.212;2023-09-30T07:29:16;38587.41;;;-145.39;32.62
37078;BME280;22989;55.998;37.212;2023-09-30T07:31:41;38688.84;;;-145.39;32.68
37078;BME280;22989;55.998;37.212;2023-09-30T07:34:07;38841.00;;;-145.39;33.03
37078;BME280;22989;55.998;37.212;2023-09-30T07:36:33;38961.94;;;-145.39;33.32
37078;BME280;22989;55.998;37.212;2023-09-30T07:38:58;39057.53;;;-145.39;33.47
37078;BME280;22989;55.998;37.212;2023-09-30T07:41:26;39192.16;;;-145.39;33.60
37078;BME280;22989;55.998;37.212;2023-09-30T07:43:52;39266.28;;;-145.39;33.90
37078;BME280;22989;55.998;37.212;2023-09-30T07:46:17;39346.28;;;-145.39;33.95
37078;BME280;22989;55.998;37.212;2023-09-30T07:48:43;39445.78;;;-145.39;34.28
37078;BME280;22989;55.998;37.212;2023-09-30T07:51:09;39484.81;;;-145.39;34.39
37078;BME280;22989;55.998;37.212;2023-09-30T07:53:39;39555.03;;;-145.39;34.63
37078;BME280;22989;55.998;37.212;2023-09-30T07:56:06;39580.41;;;-145.39;34.86
37078;BME280;22989;55.998;37.212;2023-09-30T07:58:32;39640.91;;;-145.39;34.95
37078;BME280;22989;55.998;37.212;2023-09-30T08:00:58;39720.88;;;-145.39;35.19
37078;BME280;22989;55.998;37.212;2023-09-30T08:03:24;39804.78;;;-145.39;35.33
37078;BME280;22989;55.998;37.212;2023-09-30T08:05:49;39834.06;;;-145.39;35.52
37078;BME280;22989;55.998;37.212;2023-09-30T08:08:16;39894.56;;;-145.39;35.67
37078;BME280;22989;55.998;37.212;2023-09-30T08:10:42;39986.25;;;-145.39;35.85
37078;BME280;22989;55.998;37.212;2023-09-30T08:13:08;40050.66;;;-145.39;36.18
37078;BME280;22989;55.998;37.212;2023-09-30T08:15:35;40064.31;;;-145.39;36.22
37078;BME280;22989;55.998;37.212;2023-09-30T08:18:01;40097.50;;;-145.39;36.40
37078;BME280;22989;55.998;37.212;2023-09-30T08:20:29;40136.53;;;-145.39;36.51
37078;BME280;22989;55.998;37.212;2023-09-30T08:22:55;40156.03;;;-145.39;36.66
37078;BME280;22989;55.998;37.212;2023-09-30T08:25:21;40189.22;;;-145.39;36.85
37078;BME280;22989;55.998;37.212;2023-09-30T08:27:46;40175.53;;;-145.39;36.91
37078;BME280;22989;55.998;37.212;2023-09-30T08:30:15;40179.44;;;-145.39;37.03
37078;BME280;22989;55.998;37.212;2023-09-30T08:32:41;40138.47;;;-145.39;37.15
37078;BME280;22989;55.998;37.212;2023-09-30T08:35:07;40161.88;;;-145.39;37.18
37078;BME280;22989;55.998;37.212;2023-09-30T08:37:32;40132.63;;;-145.39;37.27
37078;BME280;22989;55.998;37.212;2023-09-30T08:39:59;40146.28;;;-145.39;37.28
37078;BME280;22989;55.998;37.212;2023-09-30T08:42:26;40195.06;;;-145.39;37.41
37078;BME280;22989;55.998;37.212;2023-09-30T08:44:55;40195.06;;;-145.39;37.28
37078;BME280;22989;55.998;37.212;2023-09-30T08:47:20;40171.66;;;-145.39;37.45
37078;BME280;22989;55.998;37.212;2023-09-30T08:49:48;40148.22;;;-145.39;37.42
37078;BME280;22989;55.998;37.212;2023-09-30T08:52:20;40167.75;;;-145.39;37.49
37078;BME280;22989;55.998;37.212;2023-09-30T08:54:47;40187.25;;;-145.39;37.51
37078;BME280;22989;55.998;37.212;2023-09-30T08:57:13;40165.78;;;-145.39;37.58
37078;BME280;22989;55.998;37.212;2023-09-30T08:59:41;40171.66;;;-145.39;37.50
37078;BME280;22989;55.998;37.212;2023-09-30T09:02:09;40140.41;;;-145.39;37.60
37078;BME280;22989;55.998;37.212;2023-09-30T09:04:36;40156.03;;;-145.39;37.57
37078;BME280;22989;55.998;37.212;2023-09-30T09:07:02;40134.56;;;-145.39;37.57
37078;BME280;22989;55.998;37.212;2023-09-30T09:09:28;40154.09;;;-145.39;37.72
37078;BME280;22989;55.998;37.212;2023-09-30T09:11:53;40083.84;;;-145.39;37.56
37078;BME280;22989;55.998;37.212;2023-09-30T09:14:19;40029.19;;;-145.39;37.55
37078;BME280;22989;55.998;37.212;2023-09-30T09:17:01;40062.38;;;-145.39;37.52
37078;BME280;22989;55.998;37.212;2023-09-30T09:19:26;40025.28;;;-145.39;37.58
37078;BME280;22989;55.998;37.212;2023-09-30T09:21:57;39997.97;;;-145.39;37.45
37078;BME280;22989;55.998;37.212;2023-09-30T09:24:30;39992.13;;;-145.39;37.30
37078;BME280;22989;55.998;37.212;2023-09-30T09:27:13;39962.84;;;-145.39;37.32
37078;BME280;22989;55.998;37.212;2023-09-30T09:29:42;39968.69;;;-145.39;37.40
37078;BME280;22989;55.998;37.212;2023-09-30T09:32:14;40015.53;;;-145.39;37.23
37078;BME280;22989;55.998;37.212;2023-09-30T09:34:41;39960.91;;;-145.39;37.22
37078;BME280;22989;55.998;37.212;2023-09-30T09:37:18;39943.34;;;-145.39;37.26
37078;BME280;22989;55.998;37.212;2023-09-30T09:39:54;39921.88;;;-145.39;37.21
37078;BME280;22989;55.998;37.212;2023-09-30T09:42:31;39906.25;;;-145.39;37.25
37078;BME280;22989;55.998;37.212;2023-09-30T09:45:00;39910.16;;;-145.39;37.08
37078;BME280;22989;55.998;37.212;2023-09-30T09:47:29;39955.03;;;-145.39;37.06
37078;BME280;22989;55.998;37.212;2023-09-30T09:49:56;39966.75;;;-145.39;37.08
37078;BME280;22989;55.998;37.212;2023-09-30T09:52:23;39888.69;;;-145.39;37.09
37078;BME280;22989;55.998;37.212;2023-09-30T09:54:50;39958.94;;;-145.39;37.05
37078;BME280;22989;55.998;37.212;2023-09-30T09:57:19;39962.84;;;-145.39;37.05
37078;BME280;22989;55.998;37.212;2023-09-30T09:59:45;39931.63;;;-145.39;37.02
37078;BME280;22989;55.998;37.212;2023-09-30T10:02:16;39890.66;;;-145.39;37.09
37078;BME280;22989;55.998;37.212;2023-09-30T10:04:46;39937.47;;;-145.39;37.15
37078;BME280;22989;55.998;37.212;2023-09-30T10:07:30;39898.44;;;-145.39;37.04
37078;BME280;22989;55.998;37.212;2023-09-30T10:10:00;39863.34;;;-145.39;37.03
37078;BME280;22989;55.998;37.212;2023-09-30T10:12:27;39882.84;;;-145.39;36.94
37078;BME280;22989;55.998;37.212;2023-09-30T10:14:53;39863.34;;;-145.39;36.93
37078;BME280;22989;55.998;37.212;2023-09-30T10:17:18;39597.97;;;-145.39;36.96
37078;BME280;22989;55.998;37.212;2023-09-30T10:20:03;39777.47;;;-145.39;36.91
37078;BME280;22989;55.998;37.212;2023-09-30T10:22:29;39740.41;;;-145.39;36.80
37078;BME280;22989;55.998;37.212;2023-09-30T10:24:57;39662.34;;;-145.39;36.75
37078;BME280;22989;55.998;37.212;2023-09-30T10:37:43;39570.66;;;-145.39;36.09
37078;BME280;22989;55.998;37.212;2023-09-30T10:40:10;39564.78;;;-145.39;36.04
37078;BME280;22989;55.998;37.212;2023-09-30T10:42:48;39605.78;;;-145.39;35.91
37078;BME280;22989;55.998;37.212;2023-09-30T10:50:53;39551.13;;;-145.39;35.62
37078;BME280;22989;55.998;37.212;2023-09-30T10:53:24;39494.56;;;-145.39;35.52
37078;BME280;22989;55.998;37.212;2023-09-30T10:55:55;39424.31;;;-145.39;35.46
37078;BME280;22989;55.998;37.212;2023-09-30T10:58:21;39311.16;;;-145.39;35.42
37078;BME280;22989;55.998;37.212;2023-09-30T11:00:54;39317.00;;;-145.39;35.21
37078;BME280;22989;55.998;37.212;2023-09-30T11:03:20;39270.19;;;-145.39;35.02
37078;BME280;22989;55.998;37.212;2023-09-30T11:05:50;39309.22;;;-145.39;34.84
37078;BME280;22989;55.998;37.212;2023-09-30T11:08:21;39336.53;;;-145.39;34.84
37078;BME280;22989;55.998;37.212;2023-09-30T11:10:50;39383.34;;;-145.39;34.66
37078;BME280;22989;55.998;37.212;2023-09-30T11:13:17;39369.69;;;-145.39;34.74
37078;BME280;22989;55.998;37.212;2023-09-30T11:15:44;39361.88;;;-145.39;34.74
37078;BME280;22989;55.998;37.212;2023-09-30T11:18:14;39223.38;;;-145.39;34.68
37078;BME280;22989;55.998;37.212;2023-09-30T11:20:41;39162.88;;;-145.39;34.69
37078;BME280;22989;55.998;37.212;2023-09-30T11:23:08;39313.13;;;-145.39;34.61
37078;BME280;22989;55.998;37.212;2023-09-30T11:25:37;39373.59;;;-145.39;34.70
37078;BME280;22989;55.998;37.212;2023-09-30T11:28:17;39775.53;;;-145.39;34.92
37078;BME280;22989;55.998;37.212;2023-09-30T11:30:58;39640.91;;;-145.39;34.96
37078;BME280;22989;55.998;37.212;2023-09-30T11:33:24;39849.66;;;-145.39;35.13
37078;BME280;22989;55.998;37.212;2023-09-30T11:38:30;39851.63;;;-145.39;35.29
37078;BME280;22989;55.998;37.212;2023-09-30T11:41:03;39832.13;;;-145.39;35.29
37078;BME280;22989;55.998;37.212;2023-09-30T11:43:31;39798.94;;;-145.39;35.26
37078;BME280;22989;55.998;37.212;2023-09-30T11:46:11;39785.28;;;-145.39;35.15
37078;BME280;22989;55.998;37.212;2023-09-30T11:48:55;39754.06;;;-145.39;35.17
37078;BME280;22989;55.998;37.212;2023-09-30T11:51:24;39777.47;;;-145.39;35.19
37078;BME280;22989;55.998;37.212;2023-09-30T11:53:50;39793.09;;;-145.39;35.12
37078;BME280;22989;55.998;37.212;2023-09-30T11:56:16;39756.00;;;-145.39;35.15
37078;BME280;22989;55.998;37.212;2023-09-30T11:58:42;39767.72;;;-145.39;35.09
37078;BME280;22989;55.998;37.212;2023-09-30T12:01:07;39759.91;;;-145.39;35.14
37078;BME280;22989;55.998;37.212;2023-09-30T12:03:37;39703.34;;;-145.39;35.16
37078;BME280;22989;55.998;37.212;2023-09-30T12:06:08;39761.88;;;-145.39;35.14
37078;BME280;22989;55.998;37.212;2023-09-30T12:08:39;39642.84;;;-145.39;35.06
37078;BME280;22989;55.998;37.212;2023-09-30T12:11:05;39832.13;;;-145.39;35.10
37078;BME280;22989;55.998;37.212;2023-09-30T12:13:31;39455.53;;;-145.39;35.16
37078;BME280;22989;55.998;37.212;2023-09-30T12:15:57;39910.16;;;-145.39;35.25
37078;BME280;22989;55.998;37.212;2023-09-30T12:18:23;39916.00;;;-145.39;35.33
37078;BME280;22989;55.998;37.212;2023-09-30T12:20:50;39814.56;;;-145.39;35.34
37078;BME280;22989;55.998;37.212;2023-09-30T12:23:18;39900.41;;;-145.39;35.41
37078;BME280;22989;55.998;37.212;2023-09-30T12:25:44;39820.41;;;-145.39;35.41
37078;BME280;22989;55.998;37.212;2023-09-30T12:28:10;39853.56;;;-145.39;35.39
37078;BME280;22989;55.998;37.212;2023-09-30T12:30:35;39832.13;;;-145.39;35.51
37078;BME280;22989;55.998;37.212;2023-09-30T12:33:01;39916.00;;;-145.39;35.65
37078;BME280;22989;55.998;37.212;2023-09-30T12:35:27;39923.81;;;-145.39;35.70
37078;BME280;22989;55.998;37.212;2023-09-30T12:37:53;39917.97;;;-145.39;35.71
37078;BME280;22989;55.998;37.212;2023-09-30T12:40:18;39892.59;;;-145.39;35.59
37078;BME280;22989;55.998;37.212;2023-09-30T12:42:44;39621.38;;;-145.39;35.77
37078;BME280;22989;55.998;37.212;2023-09-30T12:45:13;39884.78;;;-145.39;35.81
37078;BME280;22989;55.998;37.212;2023-09-30T12:47:39;39894.56;;;-145.39;35.80
37078;BME280;22989;55.998;37.212;2023-09-30T12:50:06;39867.22;;;-145.39;35.80